Pinner, United Kingdom
Current Conditions -  °F | °C
As of 11:50 PM on Saturday 22 Nov 2014 (Local Time) from EGWU Reporting Station
Broken Clouds Broken Clouds  
Wind Chill: 55°   Ceiling: 1100
Heat Index: 55°   Visibility: 0.43mi
Dew Point: 54°   Wind: 1mph
Humidity: 94%   Direction: 350°N
Pressure: 29.97"   Gusts: NA
Location:  51.59°N, 0.38°W
Report Text: EGWU 222350Z AUTO 35001KT 0700 // SCT007/// BKN011/// 13/12 Q1015
Loading
Personal Weather Stations






























Interactive Weather Map New forecast layout! Learn more

10-Day Weather Forecast

Advertisements
Track Severe Weather on mobile